sensor_id;sensor_type;location;lat;lon;timestamp;pressure;altitude;pressure_sealevel;temperature;humidity
84443;BME280;74681;0.000;0.000;2023-12-20T00:00:15;98983.47;;;21.38;57.78
84443;BME280;74681;0.000;0.000;2023-12-20T00:02:40;98989.75;;;21.39;57.75
84443;BME280;74681;0.000;0.000;2023-12-20T00:05:06;98984.00;;;21.40;57.65
84443;BME280;74681;0.000;0.000;2023-12-20T00:07:31;98972.53;;;21.38;57.56
84443;BME280;74681;0.000;0.000;2023-12-20T00:09:56;98971.44;;;21.39;57.46
84443;BME280;74681;0.000;0.000;2023-12-20T00:12:22;98960.53;;;21.39;57.59
84443;BME280;74681;0.000;0.000;2023-12-20T00:14:47;98964.34;;;21.38;57.46
84443;BME280;74681;0.000;0.000;2023-12-20T00:17:13;98958.09;;;21.38;57.58
84443;BME280;74681;0.000;0.000;2023-12-20T00:19:38;98958.09;;;21.38;57.85
84443;BME280;74681;0.000;0.000;2023-12-20T00:22:03;98956.16;;;21.38;57.83
84443;BME280;74681;0.000;0.000;2023-12-20T00:24:29;98956.44;;;21.37;57.56
84443;BME280;74681;0.000;0.000;2023-12-20T00:26:54;98962.44;;;21.39;57.45
84443;BME280;74681;0.000;0.000;2023-12-20T00:29:19;98960.81;;;21.38;57.66
84443;BME280;74681;0.000;0.000;2023-12-20T00:31:45;98957.28;;;21.37;57.46
84443;BME280;74681;0.000;0.000;2023-12-20T00:34:10;98951.00;;;21.37;57.51
84443;BME280;74681;0.000;0.000;2023-12-20T00:36:35;98947.44;;;21.36;57.65
84443;BME280;74681;0.000;0.000;2023-12-20T00:39:01;98943.88;;;21.36;57.67
84443;BME280;74681;0.000;0.000;2023-12-20T00:41:27;98937.34;;;21.37;57.57
84443;BME280;74681;0.000;0.000;2023-12-20T00:43:53;98925.59;;;21.36;57.36
84443;BME280;74681;0.000;0.000;2023-12-20T00:46:18;98926.41;;;21.37;57.49
84443;BME280;74681;0.000;0.000;2023-12-20T00:48:44;98922.84;;;21.36;57.49
84443;BME280;74681;0.000;0.000;2023-12-20T00:51:10;98917.41;;;21.36;57.42
84443;BME280;74681;0.000;0.000;2023-12-20T00:53:36;98909.50;;;21.35;57.51
84443;BME280;74681;0.000;0.000;2023-12-20T00:56:01;98907.59;;;21.35;57.41
84443;BME280;74681;0.000;0.000;2023-12-20T00:58:26;98899.41;;;21.35;57.45
84443;BME280;74681;0.000;0.000;2023-12-20T01:00:53;98899.41;;;21.35;57.34
84443;BME280;74681;0.000;0.000;2023-12-20T01:03:18;98892.00;;;21.36;57.42
84443;BME280;74681;0.000;0.000;2023-12-20T01:05:44;98896.66;;;21.35;57.31
84443;BME280;74681;0.000;0.000;2023-12-20T01:08:09;98906.78;;;21.35;57.37
84443;BME280;74681;0.000;0.000;2023-12-20T01:10:34;98892.28;;;21.34;57.32
84443;BME280;74681;0.000;0.000;2023-12-20T01:13:00;98891.19;;;21.35;57.42
84443;BME280;74681;0.000;0.000;2023-12-20T01:15:25;98885.19;;;21.33;57.47
84443;BME280;74681;0.000;0.000;2023-12-20T01:17:51;98879.47;;;21.35;57.37
84443;BME280;74681;0.000;0.000;2023-12-20T01:20:16;98886.84;;;21.34;57.27
84443;BME280;74681;0.000;0.000;2023-12-20T01:22:42;98884.09;;;21.34;57.34
84443;BME280;74681;0.000;0.000;2023-12-20T01:25:08;98891.47;;;21.34;57.55
84443;BME280;74681;0.000;0.000;2023-12-20T01:27:33;98887.09;;;21.33;57.47
84443;BME280;74681;0.000;0.000;2023-12-20T01:29:59;98880.56;;;21.34;57.45
84443;BME280;74681;0.000;0.000;2023-12-20T01:32:24;98875.91;;;21.34;57.35
84443;BME280;74681;0.000;0.000;2023-12-20T01:34:49;98868.81;;;21.33;57.33
84443;BME280;74681;0.000;0.000;2023-12-20T01:37:15;98868.00;;;21.33;57.32
84443;BME280;74681;0.000;0.000;2023-12-20T01:39:40;98846.44;;;21.31;57.21
84443;BME280;74681;0.000;0.000;2023-12-20T01:42:05;98848.09;;;21.32;57.40
84443;BME280;74681;0.000;0.000;2023-12-20T01:44:31;98842.63;;;21.32;57.35
84443;BME280;74681;0.000;0.000;2023-12-20T01:46:56;98839.88;;;21.32;57.30
84443;BME280;74681;0.000;0.000;2023-12-20T01:49:22;98830.06;;;21.31;57.28
84443;BME280;74681;0.000;0.000;2023-12-20T01:51:48;98826.50;;;21.31;57.25
84443;BME280;74681;0.000;0.000;2023-12-20T01:54:14;98824.59;;;21.31;57.12
84443;BME280;74681;0.000;0.000;2023-12-20T01:56:39;98815.59;;;21.31;57.32
84443;BME280;74681;0.000;0.000;2023-12-20T01:59:05;98806.56;;;21.30;56.99
84443;BME280;74681;0.000;0.000;2023-12-20T02:01:31;98798.38;;;21.30;57.06
84443;BME280;74681;0.000;0.000;2023-12-20T02:03:57;98797.59;;;21.30;57.27
84443;BME280;74681;0.000;0.000;2023-12-20T02:06:22;98806.56;;;21.30;56.96
84443;BME280;74681;0.000;0.000;2023-12-20T02:08:49;98790.50;;;21.29;57.06
84443;BME280;74681;0.000;0.000;2023-12-20T02:11:14;98786.66;;;21.30;57.21
84443;BME280;74681;0.000;0.000;2023-12-20T02:13:40;98785.03;;;21.29;57.05
84443;BME280;74681;0.000;0.000;2023-12-20T02:16:05;98779.56;;;21.29;57.24
84443;BME280;74681;0.000;0.000;2023-12-20T02:18:32;98782.31;;;21.29;57.02
84443;BME280;74681;0.000;0.000;2023-12-20T02:20:58;98787.75;;;21.29;57.24
84443;BME280;74681;0.000;0.000;2023-12-20T02:23:23;98783.38;;;21.28;57.06
84443;BME280;74681;0.000;0.000;2023-12-20T02:25:48;98780.38;;;21.29;57.27
84443;BME280;74681;0.000;0.000;2023-12-20T02:28:14;98772.19;;;21.29;57.03
84443;BME280;74681;0.000;0.000;2023-12-20T02:30:39;98767.81;;;21.28;57.03
84443;BME280;74681;0.000;0.000;2023-12-20T02:33:07;98765.09;;;21.28;56.97
84443;BME280;74681;0.000;0.000;2023-12-20T02:35:33;98766.19;;;21.27;56.93
84443;BME280;74681;0.000;0.000;2023-12-20T02:37:59;98756.09;;;21.28;57.09
84443;BME280;74681;0.000;0.000;2023-12-20T02:40:24;98744.34;;;21.27;56.96
84443;BME280;74681;0.000;0.000;2023-12-20T02:42:49;98746.28;;;21.27;56.99
84443;BME280;74681;0.000;0.000;2023-12-20T02:45:14;98735.38;;;21.27;57.04
84443;BME280;74681;0.000;0.000;2023-12-20T02:47:40;98735.38;;;21.27;57.20
84443;BME280;74681;0.000;0.000;2023-12-20T02:50:05;98731.81;;;21.26;57.08
84443;BME280;74681;0.000;0.000;2023-12-20T02:52:31;98728.78;;;21.28;57.00
84443;BME280;74681;0.000;0.000;2023-12-20T02:54:56;98729.91;;;21.27;56.90
84443;BME280;74681;0.000;0.000;2023-12-20T02:57:21;98731.00;;;21.26;57.00
84443;BME280;74681;0.000;0.000;2023-12-20T02:59:47;98737.56;;;21.25;56.91
84443;BME280;74681;0.000;0.000;2023-12-20T03:02:12;98729.34;;;21.25;56.80
84443;BME280;74681;0.000;0.000;2023-12-20T03:04:37;98723.91;;;21.25;56.92
84443;BME280;74681;0.000;0.000;2023-12-20T03:07:03;98731.00;;;21.26;56.95
84443;BME280;74681;0.000;0.000;2023-12-20T03:09:28;98733.72;;;21.26;56.97
84443;BME280;74681;0.000;0.000;2023-12-20T03:11:53;98729.34;;;21.25;56.68
84443;BME280;74681;0.000;0.000;2023-12-20T03:14:19;98729.34;;;21.25;56.93
84443;BME280;74681;0.000;0.000;2023-12-20T03:16:49;98725.03;;;21.24;56.71
84443;BME280;74681;0.000;0.000;2023-12-20T03:19:15;98712.97;;;21.25;56.90
84443;BME280;74681;0.000;0.000;2023-12-20T03:21:40;98714.09;;;21.24;56.89
84443;BME280;74681;0.000;0.000;2023-12-20T03:24:05;98710.56;;;21.23;56.76
84443;BME280;74681;0.000;0.000;2023-12-20T03:26:30;98702.34;;;21.23;56.77
84443;BME280;74681;0.000;0.000;2023-12-20T03:28:56;98705.09;;;21.23;56.86
84443;BME280;74681;0.000;0.000;2023-12-20T03:31:21;98709.47;;;21.24;56.72
84443;BME280;74681;0.000;0.000;2023-12-20T03:33:47;98714.09;;;21.24;57.00
84443;BME280;74681;0.000;0.000;2023-12-20T03:36:12;98709.72;;;21.23;56.79
84443;BME280;74681;0.000;0.000;2023-12-20T03:38:37;98713.28;;;21.23;57.00
84443;BME280;74681;0.000;0.000;2023-12-20T03:41:03;98717.94;;;21.23;57.13
84443;BME280;74681;0.000;0.000;2023-12-20T03:43:28;98714.09;;;21.24;56.72
84443;BME280;74681;0.000;0.000;2023-12-20T03:45:53;98720.66;;;21.23;56.95
84443;BME280;74681;0.000;0.000;2023-12-20T03:48:19;98717.09;;;21.22;56.71
84443;BME280;74681;0.000;0.000;2023-12-20T03:50:44;98729.16;;;21.21;56.88
84443;BME280;74681;0.000;0.000;2023-12-20T03:53:09;98724.47;;;21.22;56.75
84443;BME280;74681;0.000;0.000;2023-12-20T03:55:35;98719.84;;;21.22;56.64
84443;BME280;74681;0.000;0.000;2023-12-20T03:58:00;98714.38;;;21.22;56.77
84443;BME280;74681;0.000;0.000;2023-12-20T04:00:25;98720.66;;;21.23;56.64
84443;BME280;74681;0.000;0.000;2023-12-20T04:02:51;98714.69;;;21.21;56.87
84443;BME280;74681;0.000;0.000;2023-12-20T04:05:16;98714.69;;;21.21;56.79
84443;BME280;74681;0.000;0.000;2023-12-20T04:07:41;98717.41;;;21.21;56.63
84443;BME280;74681;0.000;0.000;2023-12-20T04:10:07;98722.06;;;21.20;56.89
84443;BME280;74681;0.000;0.000;2023-12-20T04:12:33;98725.59;;;21.21;56.69
84443;BME280;74681;0.000;0.000;2023-12-20T04:14:58;98718.22;;;21.21;56.92
84443;BME280;74681;0.000;0.000;2023-12-20T04:17:24;98711.94;;;21.21;56.74
84443;BME280;74681;0.000;0.000;2023-12-20T04:19:49;98703.75;;;21.21;56.62
84443;BME280;74681;0.000;0.000;2023-12-20T04:22:15;98692.03;;;21.20;56.64
84443;BME280;74681;0.000;0.000;2023-12-20T04:24:40;98696.38;;;21.21;56.61
84443;BME280;74681;0.000;0.000;2023-12-20T04:27:07;98683.00;;;21.20;56.60
84443;BME280;74681;0.000;0.000;2023-12-20T04:29:33;98680.28;;;21.20;56.89
84443;BME280;74681;0.000;0.000;2023-12-20T04:31:58;98681.09;;;21.20;56.45
84443;BME280;74681;0.000;0.000;2023-12-20T04:34:24;98668.25;;;21.21;56.69
84443;BME280;74681;0.000;0.000;2023-12-20T04:36:49;98674.53;;;21.21;56.70
84443;BME280;74681;0.000;0.000;2023-12-20T04:39:14;98671.00;;;21.21;56.65
84443;BME280;74681;0.000;0.000;2023-12-20T04:41:40;98668.53;;;21.19;56.88
84443;BME280;74681;0.000;0.000;2023-12-20T04:44:05;98659.25;;;21.20;56.93
84443;BME280;74681;0.000;0.000;2023-12-20T04:46:31;98661.97;;;21.20;56.57
84443;BME280;74681;0.000;0.000;2023-12-20T04:48:56;98660.34;;;21.19;56.65
84443;BME280;74681;0.000;0.000;2023-12-20T04:51:21;98659.25;;;21.20;56.65
84443;BME280;74681;0.000;0.000;2023-12-20T04:53:47;98654.09;;;21.19;56.82
84443;BME280;74681;0.000;0.000;2023-12-20T04:56:12;98648.66;;;21.19;56.68
84443;BME280;74681;0.000;0.000;2023-12-20T04:58:37;98652.97;;;21.20;56.88
84443;BME280;74681;0.000;0.000;2023-12-20T05:01:03;98652.97;;;21.20;56.67
84443;BME280;74681;0.000;0.000;2023-12-20T05:03:30;98645.59;;;21.20;56.80
84443;BME280;74681;0.000;0.000;2023-12-20T05:05:56;98637.41;;;21.20;56.75
84443;BME280;74681;0.000;0.000;2023-12-20T05:08:21;98620.22;;;21.20;56.66
84443;BME280;74681;0.000;0.000;2023-12-20T05:10:46;98619.41;;;21.19;56.62
84443;BME280;74681;0.000;0.000;2023-12-20T05:13:12;98598.38;;;21.20;56.50
84443;BME280;74681;0.000;0.000;2023-12-20T05:15:37;98591.00;;;21.20;56.75
84443;BME280;74681;0.000;0.000;2023-12-20T05:18:03;98612.84;;;21.20;56.75
84443;BME280;74681;0.000;0.000;2023-12-20T05:20:28;98584.72;;;21.20;56.71
84443;BME280;74681;0.000;0.000;2023-12-20T05:22:53;98586.63;;;21.19;56.72
84443;BME280;74681;0.000;0.000;2023-12-20T05:25:19;98594.81;;;21.19;56.64
84443;BME280;74681;0.000;0.000;2023-12-20T05:27:45;98591.31;;;21.19;56.74
84443;BME280;74681;0.000;0.000;2023-12-20T05:30:10;98591.81;;;21.21;56.93
84443;BME280;74681;0.000;0.000;2023-12-20T05:32:36;98594.53;;;21.21;56.70
84443;BME280;74681;0.000;0.000;2023-12-20T05:35:01;98590.69;;;21.22;57.08
84443;BME280;74681;0.000;0.000;2023-12-20T05:37:26;98588.50;;;21.24;56.99
84443;BME280;74681;0.000;0.000;2023-12-20T05:39:51;98589.59;;;21.23;56.94
84443;BME280;74681;0.000;0.000;2023-12-20T05:42:17;98585.75;;;21.24;57.22
84443;BME280;74681;0.000;0.000;2023-12-20T05:44:42;98576.44;;;21.25;57.15
84443;BME280;74681;0.000;0.000;2023-12-20T05:47:07;98581.91;;;21.25;57.24
84443;BME280;74681;0.000;0.000;2023-12-20T05:49:33;98572.94;;;21.24;57.16
84443;BME280;74681;0.000;0.000;2023-12-20T05:51:58;98586.59;;;21.24;57.59
84443;BME280;74681;0.000;0.000;2023-12-20T05:54:24;98599.91;;;21.26;57.17
84443;BME280;74681;0.000;0.000;2023-12-20T05:56:50;98605.38;;;21.26;57.43
84443;BME280;74681;0.000;0.000;2023-12-20T05:59:16;98605.38;;;21.26;57.44
84443;BME280;74681;0.000;0.000;2023-12-20T06:01:41;98596.38;;;21.25;57.38
84443;BME280;74681;0.000;0.000;2023-12-20T06:04:07;98601.56;;;21.27;57.32
84443;BME280;74681;0.000;0.000;2023-12-20T06:06:32;98611.34;;;21.28;57.34
84443;BME280;74681;0.000;0.000;2023-12-20T06:08:57;98602.06;;;21.29;57.33
84443;BME280;74681;0.000;0.000;2023-12-20T06:11:23;98609.94;;;21.30;57.52
84443;BME280;74681;0.000;0.000;2023-12-20T06:13:48;98609.06;;;21.35;57.48
84443;BME280;74681;0.000;0.000;2023-12-20T06:16:18;98601.09;;;21.38;57.86
84443;BME280;74681;0.000;0.000;2023-12-20T06:18:43;98591.50;;;21.41;57.86
84443;BME280;74681;0.000;0.000;2023-12-20T06:21:08;98583.81;;;21.43;57.79
84443;BME280;74681;0.000;0.000;2023-12-20T06:23:38;98579.38;;;21.47;57.83
84443;BME280;74681;0.000;0.000;2023-12-20T06:26:03;98569.78;;;21.50;58.54
84443;BME280;74681;0.000;0.000;2023-12-20T06:28:28;98576.03;;;21.50;58.45
84443;BME280;74681;0.000;0.000;2023-12-20T06:30:54;98570.00;;;21.53;58.19
84443;BME280;74681;0.000;0.000;2023-12-20T06:33:20;98570.00;;;21.53;57.97
84443;BME280;74681;0.000;0.000;2023-12-20T06:35:47;98577.38;;;21.53;58.04
84443;BME280;74681;0.000;0.000;2023-12-20T06:38:12;98574.94;;;21.51;57.81
84443;BME280;74681;0.000;0.000;2023-12-20T06:40:38;98574.94;;;21.51;57.45
84443;BME280;74681;0.000;0.000;2023-12-20T06:43:03;98571.91;;;21.53;57.72
84443;BME280;74681;0.000;0.000;2023-12-20T06:45:28;98567.25;;;21.53;57.59
84443;BME280;74681;0.000;0.000;2023-12-20T06:47:54;98560.69;;;21.54;58.11
84443;BME280;74681;0.000;0.000;2023-12-20T06:50:20;98560.09;;;21.57;58.46
84443;BME280;74681;0.000;0.000;2023-12-20T06:52:45;98574.88;;;21.56;58.43
84443;BME280;74681;0.000;0.000;2023-12-20T06:55:10;98570.81;;;21.54;58.22
84443;BME280;74681;0.000;0.000;2023-12-20T06:57:36;98576.59;;;21.52;57.84
84443;BME280;74681;0.000;0.000;2023-12-20T07:00:02;98582.63;;;21.49;57.97
84443;BME280;74681;0.000;0.000;2023-12-20T07:02:27;98593.56;;;21.49;57.86
84443;BME280;74681;0.000;0.000;2023-12-20T07:04:55;98615.69;;;21.47;57.88
84443;BME280;74681;0.000;0.000;2023-12-20T07:07:21;98628.53;;;21.47;57.75
84443;BME280;74681;0.000;0.000;2023-12-20T07:09:48;98621.47;;;21.46;57.73
84443;BME280;74681;0.000;0.000;2023-12-20T07:12:14;98623.38;;;21.45;57.77
84443;BME280;74681;0.000;0.000;2023-12-20T07:14:39;98625.31;;;21.45;57.68
84443;BME280;74681;0.000;0.000;2023-12-20T07:17:08;98631.59;;;21.45;57.40
84443;BME280;74681;0.000;0.000;2023-12-20T07:19:37;98635.41;;;21.44;57.56
84443;BME280;74681;0.000;0.000;2023-12-20T07:22:03;98623.66;;;21.44;57.56
84443;BME280;74681;0.000;0.000;2023-12-20T07:24:28;98618.50;;;21.42;57.23
84443;BME280;74681;0.000;0.000;2023-12-20T07:26:54;98622.88;;;21.43;57.51
84443;BME280;74681;0.000;0.000;2023-12-20T07:29:19;98617.41;;;21.43;57.29
84443;BME280;74681;0.000;0.000;2023-12-20T07:31:44;98632.16;;;21.42;57.30
84443;BME280;74681;0.000;0.000;2023-12-20T07:34:10;98629.13;;;21.44;57.54
84443;BME280;74681;0.000;0.000;2023-12-20T07:36:35;98622.06;;;21.43;57.48
84443;BME280;74681;0.000;0.000;2023-12-20T07:39:00;98631.84;;;21.44;57.56
84443;BME280;74681;0.000;0.000;2023-12-20T07:41:26;98618.50;;;21.42;57.18
84443;BME280;74681;0.000;0.000;2023-12-20T07:43:51;98612.22;;;21.42;57.17
84443;BME280;74681;0.000;0.000;2023-12-20T07:46:17;98613.06;;;21.42;57.40
84443;BME280;74681;0.000;0.000;2023-12-20T07:48:47;98625.81;;;21.28;49.25
84443;BME280;74681;0.000;0.000;2023-12-20T07:51:13;98618.09;;;20.93;42.07
84443;BME280;74681;0.000;0.000;2023-12-20T07:53:38;98611.25;;;20.96;47.74
84443;BME280;74681;0.000;0.000;2023-12-20T07:56:13;98599.53;;;21.14;51.02
84443;BME280;74681;0.000;0.000;2023-12-20T07:58:38;98602.72;;;21.21;52.56
84443;BME280;74681;0.000;0.000;2023-12-20T08:01:03;98606.78;;;21.23;52.56
84443;BME280;74681;0.000;0.000;2023-12-20T08:03:29;98595.56;;;21.25;53.29
84443;BME280;74681;0.000;0.000;2023-12-20T08:05:54;98596.38;;;21.25;53.28
84443;BME280;74681;0.000;0.000;2023-12-20T08:08:19;98590.91;;;21.25;53.70
84443;BME280;74681;0.000;0.000;2023-12-20T08:10:45;98588.19;;;21.25;53.96
84443;BME280;74681;0.000;0.000;2023-12-20T08:13:10;98591.72;;;21.26;53.70
84443;BME280;74681;0.000;0.000;2023-12-20T08:15:35;98604.28;;;21.27;53.99
84443;BME280;74681;0.000;0.000;2023-12-20T08:18:02;98589.00;;;21.26;54.46
84443;BME280;74681;0.000;0.000;2023-12-20T08:20:28;98607.03;;;21.27;54.34
84443;BME280;74681;0.000;0.000;2023-12-20T08:22:53;98600.75;;;21.26;54.54
84443;BME280;74681;0.000;0.000;2023-12-20T08:25:19;98595.28;;;21.26;54.69
84443;BME280;74681;0.000;0.000;2023-12-20T08:27:44;98596.09;;;21.27;54.86
84443;BME280;74681;0.000;0.000;2023-12-20T08:30:09;98600.75;;;21.26;54.76
84443;BME280;74681;0.000;0.000;2023-12-20T08:32:35;98596.88;;;21.27;54.88
84443;BME280;74681;0.000;0.000;2023-12-20T08:35:00;98590.63;;;21.27;55.21
84443;BME280;74681;0.000;0.000;2023-12-20T08:37:26;98590.63;;;21.27;55.01
84443;BME280;74681;0.000;0.000;2023-12-20T08:39:51;98598.81;;;21.27;55.36
84443;BME280;74681;0.000;0.000;2023-12-20T08:42:16;98604.28;;;21.27;55.18
84443;BME280;74681;0.000;0.000;2023-12-20T08:44:42;98585.97;;;21.27;55.23
84443;BME280;74681;0.000;0.000;2023-12-20T08:47:07;98579.72;;;21.27;55.49
84443;BME280;74681;0.000;0.000;2023-12-20T08:49:33;98573.44;;;21.26;55.24
84443;BME280;74681;0.000;0.000;2023-12-20T08:51:58;98585.19;;;21.27;55.39
84443;BME280;74681;0.000;0.000;2023-12-20T08:54:24;98587.91;;;21.27;55.45
84443;BME280;74681;0.000;0.000;2023-12-20T08:56:49;98596.09;;;21.27;55.39
84443;BME280;74681;0.000;0.000;2023-12-20T08:59:15;98595.28;;;21.26;55.45
84443;BME280;74681;0.000;0.000;2023-12-20T09:01:40;98594.47;;;21.26;55.60
84443;BME280;74681;0.000;0.000;2023-12-20T09:04:05;98593.38;;;21.27;55.62
84443;BME280;74681;0.000;0.000;2023-12-20T09:06:31;98594.47;;;21.26;55.54
84443;BME280;74681;0.000;0.000;2023-12-20T09:08:57;98603.47;;;21.26;55.64
84443;BME280;74681;0.000;0.000;2023-12-20T09:11:22;98599.63;;;21.27;55.50
84443;BME280;74681;0.000;0.000;2023-12-20T09:13:47;98583.22;;;21.27;55.85
84443;BME280;74681;0.000;0.000;2023-12-20T09:16:13;98585.19;;;21.27;55.60
84443;BME280;74681;0.000;0.000;2023-12-20T09:18:40;98587.91;;;21.27;55.88
84443;BME280;74681;0.000;0.000;2023-12-20T09:21:06;98593.38;;;21.27;55.74
84443;BME280;74681;0.000;0.000;2023-12-20T09:23:31;98585.97;;;21.27;55.70
84443;BME280;74681;0.000;0.000;2023-12-20T09:25:56;98596.88;;;21.27;55.69
84443;BME280;74681;0.000;0.000;2023-12-20T09:28:21;98593.38;;;21.27;55.80
84443;BME280;74681;0.000;0.000;2023-12-20T09:30:47;98592.25;;;21.28;55.71
84443;BME280;74681;0.000;0.000;2023-12-20T09:33:13;98588.69;;;21.27;55.86
84443;BME280;74681;0.000;0.000;2023-12-20T09:35:39;98585.19;;;21.27;55.87
84443;BME280;74681;0.000;0.000;2023-12-20T09:38:04;98586.78;;;21.28;55.78
84443;BME280;74681;0.000;0.000;2023-12-20T09:40:29;98578.91;;;21.26;55.98
84443;BME280;74681;0.000;0.000;2023-12-20T09:42:57;98583.22;;;21.27;55.71
84443;BME280;74681;0.000;0.000;2023-12-20T09:45:24;98574.25;;;21.27;55.88
84443;BME280;74681;0.000;0.000;2023-12-20T09:47:50;98562.19;;;21.28;55.60
84443;BME280;74681;0.000;0.000;2023-12-20T09:50:17;98555.91;;;21.27;55.64
84443;BME280;74681;0.000;0.000;2023-12-20T09:52:43;98543.09;;;21.28;55.82
84443;BME280;74681;0.000;0.000;2023-12-20T09:55:08;98536.81;;;21.27;55.80
84443;BME280;74681;0.000;0.000;2023-12-20T09:57:34;98546.63;;;21.28;55.59
84443;BME280;74681;0.000;0.000;2023-12-20T10:00:00;98533.78;;;21.29;55.50
84443;BME280;74681;0.000;0.000;2023-12-20T10:02:25;98532.16;;;21.28;55.84
84443;BME280;74681;0.000;0.000;2023-12-20T10:04:54;98529.44;;;21.28;55.49
84443;BME280;74681;0.000;0.000;2023-12-20T10:07:20;98547.44;;;21.29;55.57
84443;BME280;74681;0.000;0.000;2023-12-20T10:09:47;98529.16;;;21.29;55.64
84443;BME280;74681;0.000;0.000;2023-12-20T10:12:13;98534.63;;;21.29;55.19
84443;BME280;74681;0.000;0.000;2023-12-20T10:14:38;98532.97;;;21.28;55.57
84443;BME280;74681;0.000;0.000;2023-12-20T10:17:04;98533.78;;;21.29;55.54
84443;BME280;74681;0.000;0.000;2023-12-20T10:19:29;98529.16;;;21.29;55.36
84443;BME280;74681;0.000;0.000;2023-12-20T10:21:55;98523.69;;;21.29;55.40
84443;BME280;74681;0.000;0.000;2023-12-20T10:24:20;98516.31;;;21.30;55.37
84443;BME280;74681;0.000;0.000;2023-12-20T10:26:46;98510.03;;;21.29;55.23
84443;BME280;74681;0.000;0.000;2023-12-20T10:29:11;98519.31;;;21.28;54.47
84443;BME280;74681;0.000;0.000;2023-12-20T10:31:36;98523.47;;;21.26;52.56
84443;BME280;74681;0.000;0.000;2023-12-20T10:34:03;98509.81;;;21.26;53.62
84443;BME280;74681;0.000;0.000;2023-12-20T10:36:30;98507.09;;;21.26;53.72
84443;BME280;74681;0.000;0.000;2023-12-20T10:38:56;98509.50;;;21.27;53.46
84443;BME280;74681;0.000;0.000;2023-12-20T10:41:26;98500.53;;;21.27;53.33
84443;BME280;74681;0.000;0.000;2023-12-20T10:43:53;98501.31;;;21.27;53.61
84443;BME280;74681;0.000;0.000;2023-12-20T10:46:20;98492.84;;;21.29;53.58
84443;BME280;74681;0.000;0.000;2023-12-20T10:48:46;98478.09;;;21.30;53.16
84443;BME280;74681;0.000;0.000;2023-12-20T10:51:11;98461.97;;;21.28;53.38
84443;BME280;74681;0.000;0.000;2023-12-20T10:53:38;98453.50;;;21.30;53.40
84443;BME280;74681;0.000;0.000;2023-12-20T10:56:05;98444.19;;;21.31;53.37
84443;BME280;74681;0.000;0.000;2023-12-20T10:58:32;98434.91;;;21.32;53.59
84443;BME280;74681;0.000;0.000;2023-12-20T11:01:01;98433.75;;;21.33;53.70
84443;BME280;74681;0.000;0.000;2023-12-20T11:03:30;98432.66;;;21.34;53.44
84443;BME280;74681;0.000;0.000;2023-12-20T11:06:02;98426.38;;;21.33;53.70
84443;BME280;74681;0.000;0.000;2023-12-20T11:08:37;98424.97;;;21.36;53.87
84443;BME280;74681;0.000;0.000;2023-12-20T11:11:09;98425.78;;;21.36;54.45
84443;BME280;74681;0.000;0.000;2023-12-20T11:13:40;98442.69;;;21.38;53.85
84443;BME280;74681;0.000;0.000;2023-12-20T11:16:07;98458.78;;;21.40;54.19
84443;BME280;74681;0.000;0.000;2023-12-20T11:18:32;98453.00;;;21.41;53.98
84443;BME280;74681;0.000;0.000;2023-12-20T11:21:01;98455.94;;;21.45;54.20
84443;BME280;74681;0.000;0.000;2023-12-20T11:23:30;98460.31;;;21.46;54.09
84443;BME280;74681;0.000;0.000;2023-12-20T11:25:58;98448.25;;;21.47;54.27
84443;BME280;74681;0.000;0.000;2023-12-20T11:28:24;98454.25;;;21.49;54.33
84443;BME280;74681;0.000;0.000;2023-12-20T11:30:51;98442.19;;;21.50;54.16
84443;BME280;74681;0.000;0.000;2023-12-20T11:33:18;98432.91;;;21.51;54.55
84443;BME280;74681;0.000;0.000;2023-12-20T11:35:46;98421.97;;;21.51;54.59
84443;BME280;74681;0.000;0.000;2023-12-20T11:38:12;98422.78;;;21.52;54.59
84443;BME280;74681;0.000;0.000;2023-12-20T11:40:39;98412.38;;;21.54;54.76
84443;BME280;74681;0.000;0.000;2023-12-20T11:43:06;98407.41;;;21.56;54.79
84443;BME280;74681;0.000;0.000;2023-12-20T11:45:31;98401.94;;;21.56;55.16
84443;BME280;74681;0.000;0.000;2023-12-20T11:47:57;98396.47;;;21.56;55.37
84443;BME280;74681;0.000;0.000;2023-12-20T11:50:23;98397.28;;;21.56;55.25
84443;BME280;74681;0.000;0.000;2023-12-20T11:52:49;98384.75;;;21.55;54.97
84443;BME280;74681;0.000;0.000;2023-12-20T11:55:15;98392.75;;;21.52;55.38
84443;BME280;74681;0.000;0.000;2023-12-20T11:57:41;98389.19;;;21.51;55.62
84443;BME280;74681;0.000;0.000;2023-12-20T12:00:07;98381.31;;;21.50;55.70
84443;BME280;74681;0.000;0.000;2023-12-20T12:02:32;98396.06;;;21.48;56.03
84443;BME280;74681;0.000;0.000;2023-12-20T12:04:57;98395.25;;;21.48;55.84
84443;BME280;74681;0.000;0.000;2023-12-20T12:07:24;98396.91;;;21.49;55.92
84443;BME280;74681;0.000;0.000;2023-12-20T12:09:50;98388.16;;;21.47;56.15
84443;BME280;74681;0.000;0.000;2023-12-20T12:12:16;98400.22;;;21.46;56.30
84443;BME280;74681;0.000;0.000;2023-12-20T12:14:41;98389.31;;;21.46;56.28
84443;BME280;74681;0.000;0.000;2023-12-20T12:17:13;98394.75;;;21.46;56.24
84443;BME280;74681;0.000;0.000;2023-12-20T12:19:39;98395.59;;;21.46;56.47
84443;BME280;74681;0.000;0.000;2023-12-20T12:22:11;98393.34;;;21.48;55.67
84443;BME280;74681;0.000;0.000;2023-12-20T12:24:40;98393.34;;;21.48;55.89
84443;BME280;74681;0.000;0.000;2023-12-20T12:27:06;98396.06;;;21.48;55.83
84443;BME280;74681;0.000;0.000;2023-12-20T12:29:32;98400.72;;;21.48;55.53
84443;BME280;74681;0.000;0.000;2023-12-20T12:31:57;98396.38;;;21.47;55.53
84443;BME280;74681;0.000;0.000;2023-12-20T12:34:23;98394.44;;;21.47;55.31
84443;BME280;74681;0.000;0.000;2023-12-20T12:36:48;98388.16;;;21.47;55.36
84443;BME280;74681;0.000;0.000;2023-12-20T12:39:14;98386.56;;;21.46;55.12
84443;BME280;74681;0.000;0.000;2023-12-20T12:41:42;98392.03;;;21.46;55.02
84443;BME280;74681;0.000;0.000;2023-12-20T12:44:07;98387.66;;;21.45;55.02
84443;BME280;74681;0.000;0.000;2023-12-20T12:46:33;98390.41;;;21.45;55.07
84443;BME280;74681;0.000;0.000;2023-12-20T12:48:58;98389.31;;;21.46;55.26
84443;BME280;74681;0.000;0.000;2023-12-20T12:51:23;98392.31;;;21.44;55.56
84443;BME280;74681;0.000;0.000;2023-12-20T12:53:49;98396.69;;;21.45;55.38
84443;BME280;74681;0.000;0.000;2023-12-20T12:56:14;98399.09;;;21.47;55.69
84443;BME280;74681;0.000;0.000;2023-12-20T12:58:40;98396.38;;;21.47;56.08
84443;BME280;74681;0.000;0.000;2023-12-20T13:01:05;98399.91;;;21.47;55.82